Time;durP1;ratioP1;P1;durP2;ratioP2;P2;SDS_P1;SDS_P2;PMS_P1;PMS_P2;Temp;Humidity;BMP_temperature;BMP_pressure;BME280_temperature;BME280_humidity;BME280_pressure;Samples;Min_cycle;Max_cycle;Signal;HPM_P1;HPM_P2
2022/12/25 00:00:12;;;;;;;292.30;115.47;;;7.30;99.90;;;;;;5051800;28;20048;-75
2022/12/25 00:02:40;;;;;;;529.70;195.23;;;7.30;99.90;;;;;;5052080;28;20558;-80
2022/12/25 00:05:08;;;;;;;296.65;141.23;;;7.30;99.90;;;;;;5050808;28;20488;-79
2022/12/25 00:07:35;;;;;;;405.52;157.65;;;7.20;99.90;;;;;;5051053;28;20048;-76
2022/12/25 00:10:03;;;;;;;353.77;136.85;;;7.20;99.90;;;;;;5052753;28;20099;-76
2022/12/25 00:12:32;;;;;;;223.35;110.47;;;7.10;99.90;;;;;;5055815;28;20175;-76
2022/12/25 00:15:00;;;;;;;344.02;137.95;;;7.10;99.90;;;;;;5060495;28;20041;-76
2022/12/25 00:17:27;;;;;;;251.93;115.30;;;7.10;99.90;;;;;;5049880;28;20615;-75
2022/12/25 00:19:54;;;;;;;264.38;117.97;;;7.10;99.90;;;;;;5051165;28;20123;-76
2022/12/25 00:22:22;;;;;;;253.25;115.00;;;7.10;99.90;;;;;;5052679;28;20045;-78
2022/12/25 00:24:50;;;;;;;306.48;124.32;;;7.10;99.90;;;;;;5051958;28;20435;-77
2022/12/25 00:27:17;;;;;;;415.98;138.13;;;7.00;99.90;;;;;;5050760;28;20056;-77
2022/12/25 00:29:46;;;;;;;220.43;102.85;;;6.90;99.90;;;;;;5051212;28;20427;-76
2022/12/25 00:32:14;;;;;;;218.68;106.18;;;6.90;99.90;;;;;;5058391;28;20083;-77
2022/12/25 00:34:41;;;;;;;223.05;99.45;;;6.80;99.90;;;;;;5052095;28;20056;-75
2022/12/25 00:37:08;;;;;;;246.27;110.47;;;6.80;99.90;;;;;;5054741;28;20533;-76
2022/12/25 00:39:36;;;;;;;206.95;102.88;;;6.80;99.90;;;;;;5055438;28;20045;-77
2022/12/25 00:42:22;;;;;;;213.63;103.88;;;6.80;99.90;;;;;;5057698;28;20037;-75
2022/12/25 00:44:51;;;;;;;179.93;88.68;;;6.70;99.90;;;;;;5054100;28;20045;-77
2022/12/25 00:47:19;;;;;;;266.13;91.38;;;6.80;99.90;;;;;;5052623;28;20052;-74
2022/12/25 00:49:46;;;;;;;144.13;62.55;;;6.60;99.90;;;;;;5051917;28;20124;-77
2022/12/25 00:52:14;;;;;;;192.25;72.10;;;6.60;99.90;;;;;;5052117;28;20037;-78
2022/12/25 00:54:41;;;;;;;154.23;59.20;;;6.50;99.90;;;;;;5051742;28;20040;-77
2022/12/25 00:57:09;;;;;;;108.72;53.92;;;6.40;99.90;;;;;;5050053;28;20044;-77
2022/12/25 00:59:36;;;;;;;125.22;61.83;;;6.20;99.90;;;;;;5050125;28;20037;-76
2022/12/25 01:04:54;;;;;;;170.77;88.65;;;6.30;99.90;;;;;;5044811;28;20068;-77
2022/12/25 01:07:23;;;;;;;172.90;94.15;;;6.40;99.90;;;;;;5050114;28;20048;-78
2022/12/25 01:12:39;;;;;;;135.60;75.80;;;6.30;99.90;;;;;;5050237;28;20118;-79
2022/12/25 01:15:08;;;;;;;111.20;63.17;;;6.30;99.90;;;;;;5051058;28;20045;-75
2022/12/25 01:17:37;;;;;;;98.55;57.75;;;6.30;99.90;;;;;;5051002;28;20033;-75
2022/12/25 01:20:06;;;;;;;81.25;50.92;;;6.30;99.90;;;;;;5050883;28;20522;-78
2022/12/25 01:22:34;;;;;;;104.47;52.33;;;6.40;99.90;;;;;;5067681;28;20044;-78
2022/12/25 01:25:01;;;;;;;89.07;53.38;;;6.40;99.90;;;;;;5068114;28;20055;-76
2022/12/25 01:27:28;;;;;;;115.63;62.28;;;6.40;99.90;;;;;;5054610;28;20049;-78
2022/12/25 01:29:56;;;;;;;144.15;67.32;;;6.30;99.90;;;;;;5050998;28;20033;-80
2022/12/25 01:32:23;;;;;;;122.60;66.82;;;6.30;99.90;;;;;;5051566;28;20045;-78
2022/12/25 01:34:52;;;;;;;131.85;67.22;;;6.30;99.90;;;;;;5056990;28;20029;-74
2022/12/25 01:37:19;;;;;;;123.38;66.47;;;6.30;99.90;;;;;;5053412;28;20052;-75
2022/12/25 01:39:47;;;;;;;180.98;79.80;;;6.20;99.90;;;;;;5053488;28;20041;-80
2022/12/25 01:42:17;;;;;;;118.22;63.28;;;6.20;99.90;;;;;;5050133;28;20041;-78
2022/12/25 01:45:29;;;;;;;201.23;94.18;;;6.20;99.90;;;;;;5048792;28;20045;-79
2022/12/25 01:47:56;;;;;;;161.43;78.18;;;6.20;99.90;;;;;;5005498;28;20054;-79
2022/12/25 01:50:25;;;;;;;209.68;88.88;;;6.10;99.90;;;;;;5044715;28;20102;-82
2022/12/25 01:52:54;;;;;;;142.77;73.78;;;6.00;99.90;;;;;;5049200;28;20041;-77
2022/12/25 01:55:22;;;;;;;170.93;69.32;;;6.00;99.90;;;;;;5048530;28;20079;-75
2022/12/25 01:57:50;;;;;;;275.27;84.03;;;6.10;99.90;;;;;;5067386;28;20041;-75
2022/12/25 02:00:18;;;;;;;162.05;67.78;;;6.00;99.90;;;;;;5055832;28;20040;-75
2022/12/25 02:02:46;;;;;;;145.32;64.38;;;5.90;99.90;;;;;;5046706;28;20525;-75
2022/12/25 02:05:19;;;;;;;149.35;65.57;;;5.80;99.90;;;;;;5051681;28;20052;-76
2022/12/25 02:07:49;;;;;;;245.95;79.88;;;5.80;99.90;;;;;;5071845;28;20044;-75
2022/12/25 02:10:18;;;;;;;132.07;65.55;;;5.70;99.90;;;;;;5069573;28;20033;-78
2022/12/25 02:12:46;;;;;;;183.57;65.70;;;5.70;99.90;;;;;;5054205;28;20044;-78
2022/12/25 02:15:17;;;;;;;148.40;63.28;;;5.60;99.90;;;;;;5047915;28;20433;-77
2022/12/25 02:17:55;;;;;;;221.32;73.10;;;5.50;99.90;;;;;;5048177;28;20052;-80
2022/12/25 02:20:56;;;;;;;187.25;65.30;;;5.60;99.90;;;;;;5049031;28;20105;-79
2022/12/25 02:23:58;;;;;;;125.30;58.17;;;5.50;99.90;;;;;;5046526;28;20072;-76
2022/12/25 02:26:55;;;;;;;144.63;63.13;;;5.50;99.90;;;;;;5063925;28;20053;-77
2022/12/25 02:29:30;;;;;;;152.45;69.95;;;5.50;99.90;;;;;;5042414;28;20049;-79
2022/12/25 02:32:02;;;;;;;180.60;79.13;;;5.40;99.90;;;;;;5047775;28;20143;-79
2022/12/25 02:34:37;;;;;;;261.50;87.97;;;5.30;99.90;;;;;;5049249;28;20556;-80
2022/12/25 02:37:10;;;;;;;182.15;75.78;;;5.40;99.90;;;;;;5048571;28;20429;-78
2022/12/25 02:39:59;;;;;;;166.32;73.25;;;5.30;99.90;;;;;;5049613;28;20044;-79
2022/12/25 03:07:39;;;;;;;78.10;43.20;;;5.20;99.90;;;;;;5051927;28;20048;-78
2022/12/25 03:13:04;;;;;;;78.43;39.92;;;5.10;99.90;;;;;;5051791;28;20071;-79
2022/12/25 03:18:23;;;;;;;57.35;29.55;;;5.10;99.90;;;;;;5060231;28;20067;-75
2022/12/25 03:31:10;;;;;;;83.45;46.00;;;4.90;99.90;;;;;;5050930;28;20493;-79
2022/12/25 03:32:06;;;;;;;89.57;48.40;;;4.90;99.90;;;;;;5051491;28;20055;-76
2022/12/25 04:36:19;;;;;;;79.30;29.85;;;4.40;99.90;;;;;;5073411;28;20080;-74
2022/12/25 04:38:46;;;;;;;77.53;28.70;;;4.40;99.90;;;;;;5057287;28;20053;-77
2022/12/25 04:41:15;;;;;;;59.92;32.85;;;4.50;99.90;;;;;;5055889;28;20041;-76
2022/12/25 04:43:43;;;;;;;60.53;33.28;;;4.50;99.90;;;;;;5065308;28;20077;-76
2022/12/25 04:46:10;;;;;;;61.85;32.17;;;4.60;99.90;;;;;;5069308;28;20068;-76
2022/12/25 04:48:37;;;;;;;77.25;34.35;;;4.60;99.90;;;;;;5059027;28;20068;-77
2022/12/25 04:51:13;;;;;;;50.78;29.48;;;4.70;99.90;;;;;;5052613;28;20041;-74
2022/12/25 04:53:40;;;;;;;55.03;28.52;;;4.70;99.90;;;;;;5051641;28;20412;-79
2022/12/25 04:56:07;;;;;;;49.67;26.35;;;4.80;99.90;;;;;;5051886;28;20051;-79
2022/12/25 04:58:37;;;;;;;60.55;29.25;;;4.70;99.90;;;;;;5050757;28;20511;-77
2022/12/25 05:01:05;;;;;;;94.93;36.25;;;4.70;99.90;;;;;;5051759;28;20044;-77
2022/12/25 05:03:33;;;;;;;57.40;28.45;;;4.70;99.90;;;;;;5051288;28;20043;-76
2022/12/25 05:06:01;;;;;;;68.57;31.50;;;4.70;99.90;;;;;;5049266;28;20131;-75
2022/12/25 05:08:29;;;;;;;64.43;31.08;;;4.70;99.90;;;;;;5051989;28;20047;-77
2022/12/25 05:10:57;;;;;;;57.50;29.88;;;4.70;99.90;;;;;;5053129;28;20044;-74
2022/12/25 05:13:25;;;;;;;73.57;31.45;;;4.80;99.90;;;;;;5052416;28;20048;-76
2022/12/25 05:15:55;;;;;;;59.83;30.50;;;4.80;99.90;;;;;;5050139;28;20451;-76
2022/12/25 05:18:22;;;;;;;56.92;30.77;;;4.90;99.90;;;;;;5049696;28;20041;-79
2022/12/25 05:20:54;;;;;;;63.72;32.80;;;4.90;99.90;;;;;;5049029;28;20045;-76
2022/12/25 05:23:23;;;;;;;62.78;31.25;;;4.80;99.90;;;;;;5050098;28;20037;-78
2022/12/25 05:25:50;;;;;;;87.93;37.90;;;4.90;99.90;;;;;;5049342;28;20396;-75
2022/12/25 05:28:18;;;;;;;78.97;38.95;;;4.90;99.90;;;;;;5051829;28;20505;-75
2022/12/25 05:30:45;;;;;;;82.10;39.38;;;4.80;99.90;;;;;;5068382;28;20436;-75
2022/12/25 05:33:14;;;;;;;98.93;40.65;;;4.80;99.90;;;;;;5050314;28;20037;-79
2022/12/25 05:35:42;;;;;;;79.65;41.15;;;4.70;99.90;;;;;;5050503;28;20048;-76
2022/12/25 05:38:09;;;;;;;119.88;42.85;;;4.60;99.90;;;;;;5049520;28;20029;-78
2022/12/25 05:40:39;;;;;;;96.65;42.83;;;4.60;99.90;;;;;;5049694;28;20059;-78
2022/12/25 05:43:08;;;;;;;93.82;39.90;;;4.50;99.90;;;;;;5050108;28;20389;-77
2022/12/25 05:45:35;;;;;;;81.82;33.80;;;4.40;99.90;;;;;;5048856;28;20040;-78
2022/12/25 05:48:03;;;;;;;110.28;35.83;;;4.30;99.90;;;;;;5051303;28;20060;-77
2022/12/25 05:50:32;;;;;;;119.38;39.13;;;4.30;99.90;;;;;;5051599;28;20467;-76
2022/12/25 05:53:05;;;;;;;123.18;40.38;;;4.20;99.90;;;;;;5051239;28;20036;-75
2022/12/25 05:55:34;;;;;;;112.22;39.83;;;4.30;99.90;;;;;;5050567;28;20408;-78
2022/12/25 05:58:01;;;;;;;100.65;42.78;;;4.20;99.90;;;;;;5048771;28;20045;-77
2022/12/25 06:00:29;;;;;;;95.05;40.75;;;4.10;99.90;;;;;;5050920;28;20044;-75
2022/12/25 06:02:56;;;;;;;90.60;35.88;;;4.00;99.90;;;;;;5053977;28;20420;-76
2022/12/25 06:05:24;;;;;;;84.82;34.88;;;4.00;99.90;;;;;;5053302;28;20474;-76
2022/12/25 06:07:52;;;;;;;84.93;37.30;;;4.00;99.90;;;;;;5065856;28;20473;-79
2022/12/25 06:10:20;;;;;;;61.58;33.03;;;3.90;99.90;;;;;;5054660;28;20063;-76
2022/12/25 06:12:48;;;;;;;76.38;38.95;;;3.80;99.90;;;;;;5066544;28;20045;-74
2022/12/25 06:15:16;;;;;;;77.75;38.00;;;3.90;99.90;;;;;;5070716;28;20045;-75
2022/12/25 06:17:43;;;;;;;87.65;38.90;;;3.90;99.90;;;;;;5068846;28;20112;-75
2022/12/25 06:20:11;;;;;;;76.40;39.35;;;4.00;99.90;;;;;;5069268;28;20047;-75
2022/12/25 06:22:38;;;;;;;64.88;36.55;;;4.00;99.90;;;;;;5079587;28;20037;-78
2022/12/25 06:25:08;;;;;;;84.40;38.05;;;4.10;99.90;;;;;;5061217;28;20036;-77
2022/12/25 06:27:35;;;;;;;98.35;40.53;;;4.20;99.90;;;;;;5050348;28;20049;-76
2022/12/25 06:30:03;;;;;;;89.65;39.58;;;4.20;99.90;;;;;;5049912;28;20045;-78
2022/12/25 06:32:31;;;;;;;119.85;47.38;;;4.20;99.90;;;;;;5049968;28;20519;-78
2022/12/25 06:34:58;;;;;;;94.32;40.70;;;4.10;99.90;;;;;;5049204;28;20477;-77
2022/12/25 06:37:26;;;;;;;83.35;42.08;;;4.10;99.90;;;;;;5050103;28;20069;-76
2022/12/25 06:39:53;;;;;;;75.38;40.50;;;4.00;99.90;;;;;;5050753;28;20132;-79
2022/12/25 06:42:22;;;;;;;102.45;48.22;;;4.00;99.90;;;;;;5050043;28;20420;-76
2022/12/25 06:44:50;;;;;;;101.18;46.55;;;4.00;99.90;;;;;;5051182;28;20043;-78
2022/12/25 06:47:17;;;;;;;100.97;45.00;;;4.10;99.90;;;;;;5051092;28;20099;-78
2022/12/25 06:49:45;;;;;;;105.00;45.78;;;4.10;99.90;;;;;;5051219;28;20041;-79
2022/12/25 06:52:12;;;;;;;97.70;44.83;;;4.10;99.90;;;;;;5049299;28;20045;-78
2022/12/25 06:54:42;;;;;;;108.78;50.83;;;4.20;99.90;;;;;;5050059;28;20037;-76
2022/12/25 06:57:10;;;;;;;98.03;49.10;;;4.20;99.90;;;;;;5050509;28;20037;-76
2022/12/25 06:59:39;;;;;;;97.78;49.30;;;4.40;99.90;;;;;;5050499;28;20508;-77
2022/12/25 07:02:12;;;;;;;103.30;47.47;;;4.40;99.90;;;;;;5050814;28;20059;-75
2022/12/25 07:04:43;;;;;;;157.30;59.03;;;4.50;99.90;;;;;;5050379;28;20136;-75
2022/12/25 07:07:14;;;;;;;90.10;48.88;;;4.50;99.90;;;;;;5050674;28;20550;-78
2022/12/25 07:09:42;;;;;;;100.85;48.92;;;4.60;99.90;;;;;;5050752;28;20049;-78
2022/12/25 07:12:18;;;;;;;131.65;55.30;;;4.60;99.90;;;;;;5050656;28;20039;-77
2022/12/25 07:14:48;;;;;;;110.72;54.80;;;4.70;99.90;;;;;;5063458;28;20056;-76
2022/12/25 07:17:16;;;;;;;130.82;60.65;;;4.50;99.90;;;;;;5050275;28;20041;-78
2022/12/25 07:19:43;;;;;;;114.47;58.22;;;4.50;99.90;;;;;;5049736;28;20106;-78
2022/12/25 07:22:11;;;;;;;129.18;61.30;;;4.50;99.90;;;;;;5050083;28;20041;-77
2022/12/25 07:24:39;;;;;;;123.63;60.15;;;4.50;99.90;;;;;;5050420;28;20045;-77
2022/12/25 07:27:07;;;;;;;129.70;59.92;;;4.60;99.90;;;;;;5054290;28;20075;-76
2022/12/25 07:29:35;;;;;;;116.72;53.70;;;4.70;99.90;;;;;;5069366;28;20615;-77
2022/12/25 07:32:04;;;;;;;144.23;61.17;;;4.70;99.90;;;;;;5053635;28;20041;-74
2022/12/25 07:34:31;;;;;;;121.40;54.90;;;4.70;99.90;;;;;;5069047;28;20187;-75
2022/12/25 07:36:59;;;;;;;126.80;56.65;;;4.70;99.90;;;;;;5052478;28;20097;-75
2022/12/25 07:39:26;;;;;;;143.18;54.17;;;4.80;99.90;;;;;;5053351;28;20100;-74
2022/12/25 07:41:53;;;;;;;112.40;54.28;;;4.80;99.90;;;;;;5053462;28;20041;-74
2022/12/25 07:44:21;;;;;;;132.73;54.47;;;4.80;99.90;;;;;;5052219;28;20051;-77
2022/12/25 07:46:48;;;;;;;132.68;53.15;;;4.80;99.90;;;;;;5059378;28;20064;-75
2022/12/25 07:49:17;;;;;;;137.52;51.67;;;4.70;99.90;;;;;;5074959;28;20070;-75
2022/12/25 07:51:45;;;;;;;189.45;61.88;;;4.70;99.90;;;;;;5075362;28;20041;-74
2022/12/25 07:54:12;;;;;;;110.25;53.28;;;4.70;99.90;;;;;;5075469;28;20044;-75
2022/12/25 07:56:40;;;;;;;135.93;62.65;;;4.80;99.90;;;;;;5074491;28;20048;-74
2022/12/25 07:59:07;;;;;;;125.93;62.63;;;4.80;99.90;;;;;;5075259;28;20473;-75
2022/12/25 08:01:35;;;;;;;136.70;68.28;;;5.00;99.90;;;;;;5066377;28;20059;-76
2022/12/25 08:04:03;;;;;;;218.00;94.97;;;5.10;99.90;;;;;;5061210;28;20055;-76
2022/12/25 08:06:34;;;;;;;150.68;75.35;;;5.20;99.90;;;;;;5065778;28;20089;-75
2022/12/25 08:09:04;;;;;;;121.22;64.78;;;5.20;99.90;;;;;;5065759;28;20129;-76
2022/12/25 08:11:32;;;;;;;122.65;60.58;;;5.20;99.90;;;;;;5059893;28;20037;-76
2022/12/25 08:13:59;;;;;;;135.63;64.18;;;5.20;99.90;;;;;;5057197;28;20041;-78
2022/12/25 08:16:27;;;;;;;158.88;76.05;;;5.20;99.90;;;;;;5056710;28;20047;-76
2022/12/25 08:18:54;;;;;;;132.57;68.75;;;5.30;99.90;;;;;;5057497;28;20282;-75
2022/12/25 08:21:22;;;;;;;137.10;72.30;;;5.40;99.90;;;;;;5053325;28;20037;-77
2022/12/25 08:23:51;;;;;;;140.32;73.68;;;5.50;99.90;;;;;;5052652;28;20166;-74
2022/12/25 08:26:21;;;;;;;172.52;79.50;;;5.50;99.90;;;;;;5051681;28;20411;-76
2022/12/25 08:28:49;;;;;;;164.18;78.82;;;5.50;99.90;;;;;;5052973;28;20044;-73
2022/12/25 08:31:19;;;;;;;153.77;76.22;;;5.60;99.90;;;;;;5053097;28;20033;-74
2022/12/25 08:33:47;;;;;;;150.35;77.18;;;5.60;99.90;;;;;;5050278;28;20041;-75
2022/12/25 08:36:15;;;;;;;139.80;71.82;;;5.90;99.90;;;;;;5052077;28;20040;-74
2022/12/25 08:38:43;;;;;;;140.70;74.85;;;6.00;99.90;;;;;;5052522;28;20037;-76
2022/12/25 08:41:12;;;;;;;139.93;75.65;;;5.90;99.90;;;;;;5051751;28;20029;-76
2022/12/25 08:43:40;;;;;;;138.25;74.07;;;6.00;99.90;;;;;;5050579;28;20417;-76
2022/12/25 08:46:11;;;;;;;133.55;68.20;;;6.20;99.90;;;;;;5050536;28;20045;-76
2022/12/25 08:48:41;;;;;;;130.15;66.80;;;6.40;99.90;;;;;;5048816;28;20064;-76
2022/12/25 08:51:13;;;;;;;129.05;73.32;;;6.60;99.90;;;;;;5052012;28;20053;-75
2022/12/25 08:53:40;;;;;;;126.13;68.30;;;6.70;99.90;;;;;;5052971;28;20031;-78
2022/12/25 08:56:08;;;;;;;123.43;67.60;;;6.70;99.90;;;;;;5050436;28;20051;-77
2022/12/25 08:58:37;;;;;;;125.65;73.07;;;6.80;99.90;;;;;;5053823;28;20033;-76
2022/12/25 09:01:05;;;;;;;133.73;71.57;;;6.90;99.90;;;;;;5053000;28;20646;-74
2022/12/25 09:03:33;;;;;;;112.32;60.15;;;7.00;99.90;;;;;;5052912;28;20044;-75
2022/12/25 09:06:03;;;;;;;104.95;58.97;;;7.00;99.90;;;;;;5054012;28;20041;-77
2022/12/25 09:08:31;;;;;;;116.32;59.95;;;6.90;99.90;;;;;;5067534;28;20048;-78
2022/12/25 09:11:02;;;;;;;119.78;62.58;;;6.90;99.90;;;;;;5050375;28;20033;-78
2022/12/25 09:13:30;;;;;;;109.72;62.58;;;6.90;99.90;;;;;;5050872;28;20082;-78
2022/12/25 09:16:28;;;;;;;119.10;65.78;;;7.10;99.90;;;;;;5058181;28;20041;-75
2022/12/25 09:18:57;;;;;;;112.30;63.45;;;7.20;99.90;;;;;;5076369;28;20056;-76
2022/12/25 09:21:24;;;;;;;117.20;65.47;;;7.40;99.90;;;;;;5054010;28;20067;-75
2022/12/25 09:23:52;;;;;;;111.40;64.05;;;7.30;99.90;;;;;;5053566;28;20055;-76
2022/12/25 09:26:19;;;;;;;114.78;66.35;;;7.40;99.90;;;;;;5055012;28;20049;-76
2022/12/25 09:28:47;;;;;;;118.25;66.85;;;7.40;99.90;;;;;;5045623;22;20053;-76
2022/12/25 09:31:14;;;;;;;126.78;73.97;;;7.30;99.90;;;;;;5029960;28;20469;-78
2022/12/25 09:33:43;;;;;;;131.02;71.10;;;7.30;99.90;;;;;;5030507;28;20038;-80
2022/12/25 09:36:11;;;;;;;140.35;74.68;;;7.30;99.90;;;;;;5030027;28;20444;-78
2022/12/25 09:38:39;;;;;;;132.57;72.90;;;7.30;99.90;;;;;;5029537;28;20048;-76
2022/12/25 09:41:13;;;;;;;146.85;79.60;;;7.30;99.90;;;;;;5029482;28;20038;-78
2022/12/25 09:43:46;;;;;;;144.80;80.47;;;7.30;99.90;;;;;;5019521;28;20040;-78
2022/12/25 09:46:17;;;;;;;141.02;78.50;;;7.50;99.90;;;;;;5012436;28;20079;-77
2022/12/25 09:48:53;;;;;;;197.45;102.43;;;7.60;99.90;;;;;;5032443;28;20041;-77
2022/12/25 09:51:22;;;;;;;215.63;112.25;;;7.50;99.90;;;;;;5020663;28;20068;-80
2022/12/25 09:53:58;;;;;;;209.95;112.93;;;7.50;99.90;;;;;;5036512;28;20045;-77
2022/12/25 09:56:27;;;;;;;216.27;114.13;;;7.50;99.90;;;;;;5029622;28;20046;-78
2022/12/25 09:58:55;;;;;;;225.45;118.50;;;7.30;99.90;;;;;;5029675;28;20103;-77
2022/12/25 10:01:30;;;;;;;208.98;113.20;;;7.30;99.90;;;;;;5029961;28;20041;-78
2022/12/25 10:04:22;;;;;;;194.77;105.18;;;7.30;99.90;;;;;;5012213;28;20056;-78
2022/12/25 10:07:04;;;;;;;189.38;104.30;;;7.40;99.90;;;;;;5029411;28;20042;-80
2022/12/25 10:09:51;;;;;;;182.38;102.35;;;7.40;99.90;;;;;;5029263;28;20153;-78
2022/12/25 10:12:32;;;;;;;177.68;100.65;;;7.40;99.90;;;;;;5029062;28;20440;-77
2022/12/25 10:15:14;;;;;;;163.77;96.18;;;7.60;99.90;;;;;;5028983;28;20046;-83
2022/12/25 10:18:00;;;;;;;151.75;86.55;;;7.80;99.90;;;;;;5018061;28;20049;-81
2022/12/25 10:20:43;;;;;;;146.57;89.83;;;7.90;99.90;;;;;;5012008;28;20100;-82
2022/12/25 10:23:16;;;;;;;143.15;87.32;;;8.10;99.90;;;;;;5029669;28;20065;-84
2022/12/25 10:25:45;;;;;;;139.18;83.00;;;8.20;99.90;;;;;;5011117;28;20042;-79
2022/12/25 10:28:15;;;;;;;141.93;85.32;;;8.40;99.90;;;;;;5028646;28;20053;-78
2022/12/25 10:30:44;;;;;;;139.70;82.97;;;8.50;99.90;;;;;;5028935;28;20138;-75
2022/12/25 10:33:14;;;;;;;114.45;73.43;;;8.60;99.90;;;;;;5028558;28;20559;-76
2022/12/25 10:35:43;;;;;;;104.18;65.07;;;8.80;99.90;;;;;;5010136;28;20037;-76
2022/12/25 10:38:14;;;;;;;89.75;56.35;;;9.00;99.90;;;;;;5027270;28;20413;-78
2022/12/25 10:40:56;;;;;;;84.10;53.55;;;9.10;99.90;;;;;;5028156;28;20072;-75
2022/12/25 10:43:30;;;;;;;83.63;53.08;;;9.20;99.90;;;;;;5028635;28;20041;-77
2022/12/25 10:45:59;;;;;;;81.13;52.95;;;9.40;99.90;;;;;;5028712;28;20050;-78
2022/12/25 10:48:30;;;;;;;73.07;49.42;;;9.60;99.90;;;;;;5028504;28;20103;-78
2022/12/25 10:50:59;;;;;;;67.50;45.75;;;9.70;99.90;;;;;;5028792;28;20056;-76
2022/12/25 10:53:28;;;;;;;73.53;48.45;;;9.90;99.90;;;;;;5011164;28;20058;-76
2022/12/25 10:56:00;;;;;;;71.35;47.05;;;10.00;99.90;;;;;;5029015;28;20393;-75
2022/12/25 10:58:28;;;;;;;81.30;50.78;;;10.20;99.90;;;;;;5031142;28;20485;-77
2022/12/25 11:00:59;;;;;;;85.85;57.10;;;10.40;99.90;;;;;;5032304;28;20041;-75
2022/12/25 11:03:29;;;;;;;88.57;59.35;;;10.50;99.90;;;;;;5032816;28;20069;-77
2022/12/25 11:05:58;;;;;;;94.65;63.28;;;10.60;99.90;;;;;;5032379;28;20042;-77
2022/12/25 11:08:29;;;;;;;92.57;60.85;;;10.70;99.90;;;;;;5032488;28;20042;-75
2022/12/25 11:11:04;;;;;;;105.18;70.18;;;10.80;99.90;;;;;;5014858;28;20579;-76
2022/12/25 11:13:36;;;;;;;97.40;66.22;;;10.90;99.90;;;;;;5033047;28;20044;-77
2022/12/25 11:16:09;;;;;;;97.53;63.55;;;11.00;99.90;;;;;;5031319;28;20124;-76
2022/12/25 11:18:46;;;;;;;99.05;66.88;;;11.10;99.90;;;;;;5031550;28;20574;-77
2022/12/25 11:21:22;;;;;;;112.88;70.80;;;11.20;99.90;;;;;;5031260;28;20433;-78
2022/12/25 11:23:55;;;;;;;;;;;11.30;99.90;;;;;;5033634;28;20037;-78
2022/12/25 11:26:23;;;;;;;121.72;77.05;;;11.30;99.90;;;;;;5031992;28;19925;-76
2022/12/25 11:28:52;;;;;;;117.57;80.07;;;11.40;99.90;;;;;;5032094;28;20049;-77
2022/12/25 11:31:21;;;;;;;117.60;76.75;;;11.50;99.90;;;;;;5032236;28;20100;-78
2022/12/25 11:33:54;;;;;;;108.20;69.72;;;11.60;99.90;;;;;;5031967;28;20041;-77
2022/12/25 11:36:30;;;;;;;105.32;69.60;;;11.70;99.90;;;;;;5031662;28;20420;-78
2022/12/25 11:39:02;;;;;;;;;;;11.80;99.90;;;;;;5032054;28;20092;-78
2022/12/25 11:41:34;;;;;;;142.38;90.15;;;11.80;99.90;;;;;;5021241;28;19921;-77
2022/12/25 11:44:07;;;;;;;163.75;106.72;;;11.80;99.90;;;;;;5031903;28;20042;-77
2022/12/25 11:46:42;;;;;;;169.98;111.70;;;11.80;99.90;;;;;;5031477;28;20034;-77
2022/12/25 11:49:14;;;;;;;174.68;113.50;;;11.80;99.90;;;;;;5031542;28;20128;-77
2022/12/25 11:51:48;;;;;;;169.40;108.20;;;11.80;99.90;;;;;;5032269;28;20485;-76
2022/12/25 11:54:22;;;;;;;159.18;107.30;;;11.90;99.90;;;;;;5032002;28;20045;-77
2022/12/25 11:56:50;;;;;;;167.70;111.50;;;12.00;99.90;;;;;;5031439;28;20144;-77
2022/12/25 11:59:24;;;;;;;150.45;100.07;;;12.10;99.90;;;;;;5031235;28;20045;-76
2022/12/25 12:01:58;;;;;;;138.98;89.68;;;12.10;99.90;;;;;;5030965;28;20512;-76
2022/12/25 12:04:31;;;;;;;128.48;83.68;;;12.10;99.90;;;;;;5031050;28;20481;-77
2022/12/25 12:07:04;;;;;;;128.10;84.70;;;12.20;99.90;;;;;;5030783;28;20040;-75
2022/12/25 12:09:42;;;;;;;135.10;88.70;;;12.30;99.90;;;;;;5030908;28;20141;-78
2022/12/25 12:12:17;;;;;;;128.10;86.32;;;12.30;99.90;;;;;;5030200;28;20422;-77
2022/12/25 12:14:50;;;;;;;128.75;88.13;;;12.40;99.90;;;;;;5030712;28;20519;-77
2022/12/25 12:17:19;;;;;;;123.57;85.10;;;12.40;99.90;;;;;;5031139;28;20042;-77
2022/12/25 12:19:46;;;;;;;126.07;81.88;;;12.40;99.90;;;;;;5030498;28;20112;-76
2022/12/25 12:22:20;;;;;;;126.97;83.05;;;12.40;99.90;;;;;;5030529;28;20397;-77
2022/12/25 12:24:53;;;;;;;122.68;82.93;;;12.40;99.90;;;;;;5030998;28;20041;-75
2022/12/25 12:27:25;;;;;;;126.65;82.07;;;12.50;99.90;;;;;;5011548;28;20108;-77
2022/12/25 12:29:55;;;;;;;126.32;82.43;;;12.50;99.90;;;;;;5031060;28;20111;-78
2022/12/25 12:32:33;;;;;;;123.10;81.20;;;12.50;99.90;;;;;;5031128;28;20176;-77
2022/12/25 12:35:07;;;;;;;114.75;76.07;;;12.50;99.90;;;;;;5030443;28;20072;-78
2022/12/25 12:37:37;;;;;;;113.78;77.88;;;12.60;99.90;;;;;;5031911;28;20053;-77
2022/12/25 12:40:09;;;;;;;113.22;74.78;;;12.60;99.90;;;;;;5030750;28;20497;-75
2022/12/25 12:42:49;;;;;;;112.65;76.00;;;12.60;1.00;;;;;;5030983;28;20049;-75
2022/12/25 12:45:19;;;;;;;112.22;75.93;;;12.60;99.90;;;;;;5030905;28;20116;-79
2022/12/25 12:47:49;;;;;;;111.82;77.50;;;12.70;1.00;;;;;;5030166;28;20564;-79
2022/12/25 12:50:33;;;;;;;113.03;76.03;;;12.70;1.00;;;;;;5031161;28;20103;-78
2022/12/25 12:53:27;;;;;;;111.80;74.85;;;12.70;1.00;;;;;;5030242;28;20494;-78
2022/12/25 12:55:55;;;;;;;100.75;67.03;;;12.70;1.00;;;;;;5030070;28;20475;-79
2022/12/25 12:58:31;;;;;;;101.78;69.20;;;12.70;99.90;;;;;;5029865;28;20049;-76
2022/12/25 13:01:08;;;;;;;99.38;64.85;;;12.80;76.20;;;;;;5030074;28;20056;-79
2022/12/25 13:04:00;;;;;;;98.45;66.25;;;12.80;99.90;;;;;;5030565;28;20045;-77
2022/12/25 13:06:33;;;;;;;105.70;69.32;;;12.80;1.00;;;;;;5019271;28;20045;-78
2022/12/25 13:09:13;;;;;;;119.35;79.78;;;12.90;1.00;;;;;;5013726;28;20046;-77
2022/12/25 13:11:43;;;;;;;101.30;68.50;;;12.90;1.00;;;;;;5013178;28;20156;-77
2022/12/25 13:14:15;;;;;;;99.80;64.32;;;13.00;1.00;;;;;;5031593;28;20052;-78
2022/12/25 13:16:45;;;;;;;102.68;65.55;;;13.00;99.90;;;;;;5013362;28;20041;-78
2022/12/25 13:19:16;;;;;;;97.07;63.63;;;13.00;99.90;;;;;;5029777;28;20120;-79
2022/12/25 13:21:53;;;;;;;104.10;67.28;;;13.00;99.90;;;;;;5029671;28;20068;-78
2022/12/25 13:24:23;;;;;;;98.03;63.88;;;13.00;99.90;;;;;;5029461;28;20049;-79
2022/12/25 13:26:51;;;;;;;106.63;71.80;;;13.10;99.90;;;;;;5029395;28;20075;-78
2022/12/25 13:29:41;;;;;;;112.20;71.28;;;13.10;99.90;;;;;;5012595;28;20056;-78
2022/12/25 13:32:27;;;;;;;118.18;71.90;;;13.10;99.90;;;;;;5028050;28;20053;-78
2022/12/25 13:34:55;;;;;;;110.13;73.47;;;13.00;99.90;;;;;;5033426;28;20037;-78
2022/12/25 13:37:28;;;;;;;119.25;77.85;;;13.10;99.90;;;;;;5012584;28;20049;-79
2022/12/25 13:40:06;;;;;;;115.35;77.95;;;13.10;99.90;;;;;;5029579;28;20045;-77
2022/12/25 13:42:35;;;;;;;126.88;82.40;;;13.00;1.00;;;;;;5029735;28;20068;-79
2022/12/25 13:45:33;;;;;;;126.32;81.63;;;13.00;1.00;;;;;;5030574;28;20033;-78
2022/12/25 13:48:14;;;;;;;120.70;79.10;;;13.00;1.00;;;;;;5011743;28;20081;-78
2022/12/25 13:50:57;;;;;;;122.15;79.18;;;13.00;1.00;;;;;;5010278;28;20081;-79
2022/12/25 13:53:25;;;;;;;111.32;75.35;;;12.90;1.00;;;;;;5019899;28;20042;-78
2022/12/25 13:55:58;;;;;;;115.13;77.40;;;12.90;1.00;;;;;;5018376;28;20042;-77
2022/12/25 13:58:28;;;;;;;115.75;78.32;;;12.90;1.00;;;;;;5020202;28;20544;-80
2022/12/25 14:01:02;;;;;;;110.32;76.05;;;12.90;1.00;;;;;;5027144;28;20033;-78
2022/12/25 14:03:36;;;;;;;112.35;76.93;;;12.90;1.00;;;;;;5030036;28;20124;-77
2022/12/25 14:06:06;;;;;;;115.75;76.82;;;12.90;1.00;;;;;;5028436;28;20045;-78
2022/12/25 14:08:35;;;;;;;115.60;77.82;;;12.80;1.00;;;;;;5028334;28;20030;-77
2022/12/25 14:11:06;;;;;;;115.28;78.10;;;12.80;1.00;;;;;;5029193;28;20033;-79
2022/12/25 14:13:36;;;;;;;140.85;92.45;;;12.80;1.00;;;;;;5011483;28;20042;-79
2022/12/25 14:16:04;;;;;;;162.10;103.85;;;12.70;99.90;;;;;;5029030;28;20029;-78
2022/12/25 14:18:32;;;;;;;173.30;109.32;;;12.70;99.90;;;;;;5029125;28;20042;-79
2022/12/25 14:21:02;;;;;;;193.77;127.63;;;12.70;1.00;;;;;;5028767;28;20037;-79
2022/12/25 14:23:40;;;;;;;202.63;131.77;;;12.60;1.00;;;;;;5028866;28;20072;-78
2022/12/25 14:26:15;;;;;;;227.52;141.55;;;12.50;99.90;;;;;;5028096;28;20041;-78
2022/12/25 14:28:46;;;;;;;242.35;147.63;;;12.40;1.00;;;;;;5029230;28;20060;-77
2022/12/25 14:31:14;;;;;;;224.63;140.77;;;12.20;69.30;;;;;;5030521;28;20124;-78